x

Canaveral East - 120nm East Of Cape Canaveral (41010) Wave Buoy

3:50pm - Sun 1st Mar 2015 All times are EST. -5 hours from GMT.

  • Sig Wave height 7.5ft
  • Swell Direction
  • Peak Period 11s
  • Average Period 6s
  • Wind
    16mph, 20mph gusts
  • Sea Temp 75°f
  • Air Temp 72°f
  • Sea Pressure 1026.8mb
  • Canaveral East - 120nm East Of Cape Canaveral
  • Canaveral East - 120nm East Of Cape Canaveral

More Historic Weather Station data

Upgrade to MSW Pro to gain access to the past 30 days of data for over 8000 Wavebouys and Weather Stations around the globe.

Join Pro

Comparision Forecast

View Surf forecast
   
Sun 03/01 3:50pm 7.5ft 11s 6s 16 20 mph 1026.8mb 75f 72f
3:20pm  -   -   -  18 25 mph 1026.8mb 75f 72f
2:50pm 8ft 9s 6s 20 22 mph 1026.8mb 75f 72f
2:20pm  -   -   -  18 25 mph 1027.2mb 75f 72f
1:50pm 7.5ft 11s 6s 20 25 mph 1027.3mb 74f 72f
1:20pm  -   -   -  20 25 mph 1027.4mb 74f 71f
12:50pm 8.5ft 9s 6s 20 25 mph 1028mb 74f 71f
12:20pm  -   -   -  22 25 mph 1028.5mb 74f 71f
11:50am 9ft 9s 7s 25 27 mph 1028.6mb 74f 71f
11:20am  -   -   -  22 27 mph 1028.7mb 74f 71f
10:50am 9ft 11s 6s 25 29 mph 1028.7mb 74f 71f
10:20am  -   -   -  22 29 mph 1029.2mb 74f 71f
9:50am 10ft 10s 7s 22 25 mph 1029.4mb 74f 70f
9:20am  -   -   -  22 27 mph 1029.3mb 74f 70f
8:50am 9ft 9s 6s 22 29 mph 1029.2mb 74f 71f
8:20am  -   -   -  22 27 mph 1029mb 74f 72f
7:50am 9.5ft 9s 7s 22 27 mph 1028.6mb 74f 71f
7:20am  -   -   -  25 29 mph 1028.2mb 74f 71f
6:50am 9.5ft 10s 6s 25 29 mph 1027.8mb 74f 71f
6:20am  -   -   -  25 29 mph 1027.6mb 74f 71f
5:50am 10.5ft 9s 6s 22 29 mph 1027.5mb 74f 71f
5:20am  -   -   -  25 29 mph 1027.1mb 74f 71f
4:50am 9.5ft 8s 6s 25 29 mph 1027mb 74f 71f
4:20am  -   -   -  25 29 mph 1026.9mb 74f 71f
3:50am 10ft 9s 6s 25 29 mph 1027mb 74f 71f
3:20am  -   -   -  25 29 mph 1027mb 74f 71f
2:50am 10.5ft 9s 6s 25 29 mph 1027.3mb 74f 71f
2:20am  -   -   -  27 31 mph 1027.5mb 74f 71f
1:50am 10ft 8s 6s 25 29 mph 1027.7mb 74f 71f
1:20am  -   -   -  29 34 mph 1027.9mb 74f 71f
12:50am 10.5ft 9s 6s 29 34 mph 1027.8mb 74f 71f
12:20am  -   -   -  29 34 mph 1028.1mb 73f 71f
Sat 02/28 11:50pm 10ft 7s 6s 29 34 mph 1028.6mb 73f 71f
11:20pm  -   -   -  27 34 mph 1029mb 73f 71f
10:50pm 10ft 8s 6s 27 34 mph 1029mb 73f 71f
10:20pm  -   -   -  29 34 mph 1028.9mb 73f 71f
9:50pm 9.5ft 8s 6s 29 34 mph 1028.8mb 73f 71f
9:20pm  -   -   -  27 34 mph 1028.9mb 73f 71f
8:50pm 9ft 8s 6s 27 34 mph 1028.5mb 73f 71f
8:20pm  -   -   -  25 29 mph 1028.6mb 73f 71f
7:50pm 9ft 8s 6s 27 31 mph 1027.8mb 73f 71f
7:20pm  -   -   -  25 29 mph 1027.8mb 73f 71f
6:50pm 8.5ft 7s 6s 25 27 mph 1027.8mb 73f 71f
5:50pm 8ft 8s 6s 27 31 mph 1027.1mb 72f 71f
5:20pm  -   -   -  27 34 mph 1026.6mb 72f 71f
4:50pm 8ft 7s 6s 27 34 mph 1026.9mb 72f 71f
4:20pm  -   -   -  25 29 mph 1027.1mb 72f 71f
3:50pm 8ft 8s 6s 25 29 mph 1027mb 72f 71f
3:20pm  -   -   -  25 29 mph 1026.8mb 72f 71f
2:50pm 8ft 7s 6s 25 29 mph 1026.7mb 72f 71f
2:20pm  -   -   -  25 29 mph 1027mb 72f 71f
1:50pm 8ft 8s 6s 27 31 mph 1026.9mb 72f 69f
1:20pm  -   -   -  25 29 mph 1027.2mb 71f 70f
12:50pm 8.5ft 7s 6s 22 27 mph 1027.9mb 71f 70f
12:20pm  -   -   -  20 25 mph 1028.4mb 71f 70f
11:50am 9ft 6s 6s 25 34 mph 1028.1mb 71f 69f
11:20am  -   -   -  27 34 mph 1028.5mb 71f 69f
10:50am 8.5ft 8s 6s 27 34 mph 1028.1mb 71f 69f
10:20am  -   -   -  29 34 mph 1027.4mb 71f 69f
9:50am 8ft 7s 6s 25 31 mph 1028.4mb 70f 68f
9:20am  -   -   -  25 29 mph 1028.4mb 70f 67f
8:50am 8.5ft 11s 6s 25 31 mph 1028mb 70f 67f
8:20am  -   -   -  25 31 mph 1027.8mb 70f 67f
7:50am 8ft 7s 6s 25 29 mph 1027.5mb 70f 67f
7:20am  -   -   -  25 27 mph 1027mb 70f 67f
6:50am 7ft 7s 6s 25 29 mph 1026.4mb 70f 66f
6:20am  -   -   -  25 29 mph 1025.9mb 70f 66f
5:50am 8ft 11s 6s 25 27 mph 1025.4mb 70f 66f
5:20am  -   -   -  22 27 mph 1025.2mb 70f 67f
4:50am 8.5ft 11s 6s 25 29 mph 1024.7mb 71f 67f
4:20am  -   -   -  22 27 mph 1024.2mb 71f 67f
3:50am 7.5ft 7s 6s 22 29 mph 1024.1mb 71f 67f
3:20am  -   -   -  27 31 mph 1023.7mb 71f 67f
2:50am 9ft 7s 6s 25 31 mph 1023.7mb 71f 68f
2:20am  -   -   -  25 29 mph 1024mb 71f 67f
1:50am 9ft 7s 6s 25 29 mph 1023.9mb 71f 68f
1:20am  -   -   -  25 29 mph 1024.2mb 71f 67f
12:50am 8ft 6s 6s 25 29 mph 1024mb 71f 68f
12:20am  -   -   -  25 29 mph 1024.4mb 71f 67f
Fri 02/27 11:50pm 8ft 6s 6s 25 29 mph 1024.6mb 71f 67f
11:20pm  -   -   -  25 31 mph 1024.3mb 71f 67f
10:50pm 7.5ft 6s 6s 25 29 mph 1024.7mb 71f 67f
10:20pm  -   -   -  25 29 mph 1024.4mb 71f 67f
9:50pm 7.5ft 6s 6s 22 29 mph 1024.5mb 72f 67f
9:20pm  -   -   -  25 29 mph 1024.3mb 72f 67f
8:50pm 6.5ft 11s 5s 22 27 mph 1024mb 72f 67f
8:20pm  -   -   -  25 27 mph 1023.2mb 72f 67f
7:50pm 6ft 12s 5s 25 31 mph 1023.2mb 72f 67f
7:20pm  -   -   -  22 27 mph 1023mb 72f 67f
6:50pm 5.5ft 10s 5s 25 29 mph 1022.5mb 73f 67f
6:20pm  -   -   -  22 29 mph 1022.5mb 73f 67f
5:50pm 4.5ft 11s 5s 25 29 mph 1021.5mb 73f 67f
5:20pm  -   -   -  22 27 mph 1021.7mb 73f 66f
4:50pm 4.5ft 11s 5s 22 29 mph 1021.5mb 73f 66f
4:20pm  -   -   -  20 25 mph 1021.7mb 73f 65f
3:50pm 4.5ft 10s 5s 20 25 mph 1021.2mb 73f 65f
3:20pm  -   -   -  20 22 mph 1021.7mb 73f 65f
2:50pm 4.5ft 11s 5s 22 27 mph 1021.5mb 73f 65f
2:20pm  -   -   -  18 20 mph 1021.4mb 73f 65f
1:50pm 4.5ft 11s 5s 16 20 mph 1021.5mb 73f 66f
1:20pm  -   -   -  16 20 mph 1021.7mb 73f 66f
12:50pm 4.5ft 10s 5s 18 22 mph 1021.7mb 73f 66f
12:20pm  -   -   -  18 20 mph 1022mb 73f 66f
11:50am 4.5ft 7s 5s 18 20 mph 1022.1mb 73f 66f
11:20am  -   -   -  18 20 mph 1022.2mb 73f 66f
10:50am 4.5ft 11s 5s 16 20 mph 1022.1mb 73f 67f
10:20am  -   -   -  16 20 mph 1021.7mb 73f 68f
9:50am 4.5ft 6s 5s 18 20 mph 1021.2mb 73f 68f
9:20am  -   -   -  16 20 mph 1021.1mb 73f 68f
8:50am 4.5ft 11s 6s 16 20 mph 1020.5mb 73f 68f
8:20am  -   -   -  13 18 mph 1020.6mb 73f 68f
7:50am 4ft 7s 5s 16 18 mph 1019.8mb 73f 67f
7:20am  -   -   -  16 18 mph 1019.4mb 74f 67f
6:50am 4.5ft 10s 6s 16 20 mph 1019mb 74f 67f
6:20am  -   -   -  16 20 mph 1018.5mb 74f 67f
5:50am 4.5ft 7s 6s 16 18 mph 1018.3mb 74f 67f
5:20am  -   -   -  13 18 mph 1018.2mb 74f 67f
4:50am 4.5ft 8s 6s 13 16 mph 1017.8mb 74f 66f
4:20am  -   -   -  13 18 mph 1017.2mb 74f 66f
3:50am 4.5ft 8s 6s 13 16 mph 1017mb 74f 66f
3:20am  -   -   -  13 18 mph 1016.7mb 74f 66f
2:50am 5ft 8s 6s 16 18 mph 1016.3mb 74f 67f
2:20am  -   -   -  13 18 mph 1016.8mb 74f 67f
1:50am 5ft 8s 6s 13 16 mph 1017mb 74f 66f
1:20am  -   -   -  13 16 mph 1017.1mb 74f 66f
12:50am 5.5ft 8s 6s 13 18 mph 1017.3mb 74f 67f
12:20am  -   -   -  13 16 mph 1016.9mb 74f 67f
Thu 02/26 11:50pm 5.5ft 7s 6s 13 18 mph 1017.1mb 74f 66f
11:20pm  -   -   -  11 16 mph 1017.1mb 74f 65f
10:50pm 5.5ft 7s 6s 9 11 mph 1017.5mb 74f 64f
10:20pm  -   -   -  16 18 mph 1016.7mb 74f 65f
9:50pm 6ft 7s 6s 13 16 mph 1016.3mb 74f 66f
9:20pm  -   -   -  13 18 mph 1015.9mb 74f 65f
8:50pm 5.5ft 6s 6s 16 18 mph 1015.5mb 74f 66f
8:20pm  -   -   -  13 18 mph 1015.4mb 74f 66f
7:50pm 6.5ft 7s 6s 16 20 mph 1014.6mb 74f 66f
7:20pm  -   -   -  13 16 mph 1014.7mb 74f 67f
6:50pm 7ft 7s 6s 13 16 mph 1014.1mb 74f 67f
6:20pm  -   -   -  13 16 mph 1013.5mb 74f 67f
5:50pm 7ft 8s 6s 11 16 mph 1013.2mb 74f 67f
5:20pm  -   -   -  13 16 mph 1013.1mb 74f 67f
4:50pm 7.5ft 8s 6s 13 18 mph 1012.4mb 74f 67f
4:20pm  -   -   -  13 18 mph 1012mb 74f 68f
3:50pm 9ft 8s 6s 13 16 mph 1011.5mb 74f 68f
3:20pm  -   -   -  18 20 mph 1011.3mb 74f 68f
2:50pm 9ft 8s 6s 20 25 mph 1010.7mb 74f 70f
2:20pm  -   -   -  18 25 mph 1010.5mb 74f 69f
1:50pm 10ft 8s 7s 22 31 mph 1010.1mb 74f 71f
1:20pm  -   -   -  22 29 mph 1010mb 74f 72f
12:50pm 9.5ft 8s 6s 20 25 mph 1010.2mb 74f 72f
12:20pm  -   -   -  20 29 mph 1010.3mb 75f 73f
11:50am 10.5ft 8s 7s 20 27 mph 1010.4mb 75f 72f
11:20am  -   -   -  25 31 mph 1010.6mb 75f 71f
10:50am 11ft 8s 7s 22 29 mph 1010.3mb 75f 71f
10:20am  -   -   -  25 34 mph 1009.6mb 75f 76f
9:50am 12ft 9s 7s 27 34 mph 1009.2mb 75f 76f
9:20am  -   -   -  29 36 mph 1008.9mb 75f 76f
8:50am 11ft 8s 7s 29 34 mph 1008.6mb 75f 76f
8:20am  -   -   -  31 36 mph 1007.6mb 75f 76f
7:20am  -   -   -  29 34 mph 1007.4mb 75f 76f
6:50am 11ft 8s 6s 27 34 mph 1007.5mb 75f 76f
6:20am  -   -   -  29 34 mph 1006.9mb 75f 76f
5:50am 10ft 8s 6s 27 36 mph 1007.2mb 75f 76f
5:20am  -   -   -  25 29 mph 1007.5mb 75f 75f
4:50am 10ft 8s 6s 27 31 mph 1007.3mb 75f 75f
4:20am  -   -   -  27 31 mph 1007mb 75f 75f
3:50am 9ft 7s 6s 27 34 mph 1006.8mb 75f 75f
3:20am  -   -   -  27 31 mph 1007mb 75f 75f
2:50am 9ft 7s 6s 27 36 mph 1007.4mb 75f 75f
2:20am  -   -   -  29 34 mph 1007.4mb 75f 75f
1:50am 8ft 7s 6s 31 38 mph 1007.3mb 75f 74f
1:20am  -   -   -  31 38 mph 1007.4mb 75f 74f
12:50am 8ft 6s 5s 27 34 mph 1007.5mb 75f 75f
12:20am  -   -   -  27 34 mph 1007.8mb 75f 75f
Wed 02/25 11:50pm 7ft 6s 5s 29 34 mph 1007.7mb 75f 75f
11:20pm  -   -   -  29 36 mph 1007.5mb 75f 75f
10:50pm 6.5ft 6s 5s 29 36 mph 1007.8mb 75f 75f
10:20pm  -   -   -  29 36 mph 1008mb 75f 74f
9:50pm 5.5ft 5s 5s 29 34 mph 1008.2mb 75f 74f